sensor_id;sensor_type;location;lat;lon;timestamp;P1;durP1;ratioP1;P2;durP2;ratioP2
51792;SDS011;37850;53.178;6.376;2022-08-19T17:00:22;15.60;;;8.48;;
51792;SDS011;37850;53.178;6.376;2022-08-19T17:02:48;12.50;;;9.18;;
51792;SDS011;37850;53.178;6.376;2022-08-19T17:05:14;18.15;;;9.85;;
51792;SDS011;37850;53.178;6.376;2022-08-19T17:07:39;16.95;;;10.52;;
51792;SDS011;37850;53.178;6.376;2022-08-19T17:10:05;15.02;;;9.73;;
51792;SDS011;37850;53.178;6.376;2022-08-19T17:12:31;12.88;;;8.98;;
51792;SDS011;37850;53.178;6.376;2022-08-19T17:14:59;14.27;;;8.82;;
51792;SDS011;37850;53.178;6.376;2022-08-19T17:17:26;11.05;;;7.82;;
51792;SDS011;37850;53.178;6.376;2022-08-19T17:19:53;12.27;;;7.53;;
51792;SDS011;37850;53.178;6.376;2022-08-19T17:22:19;11.73;;;8.35;;
51792;SDS011;37850;53.178;6.376;2022-08-19T17:24:45;12.73;;;9.05;;
51792;SDS011;37850;53.178;6.376;2022-08-19T17:27:10;14.15;;;9.10;;
51792;SDS011;37850;53.178;6.376;2022-08-19T17:29:36;13.50;;;8.52;;
51792;SDS011;37850;53.178;6.376;2022-08-19T17:32:02;14.02;;;8.95;;
51792;SDS011;37850;53.178;6.376;2022-08-19T17:34:29;11.60;;;8.68;;
51792;SDS011;37850;53.178;6.376;2022-08-19T17:36:55;12.18;;;8.52;;
51792;SDS011;37850;53.178;6.376;2022-08-19T17:39:21;12.52;;;7.95;;
51792;SDS011;37850;53.178;6.376;2022-08-19T17:41:47;15.75;;;7.70;;
51792;SDS011;37850;53.178;6.376;2022-08-19T17:44:13;11.43;;;7.10;;
51792;SDS011;37850;53.178;6.376;2022-08-19T17:46:39;10.95;;;6.53;;
51792;SDS011;37850;53.178;6.376;2022-08-19T17:49:05;13.82;;;6.10;;
51792;SDS011;37850;53.178;6.376;2022-08-19T17:53:57;8.07;;;5.78;;
51792;SDS011;37850;53.178;6.376;2022-08-19T17:56:23;11.10;;;6.32;;
51792;SDS011;37850;53.178;6.376;2022-08-19T17:58:53;10.48;;;6.03;;
51792;SDS011;37850;53.178;6.376;2022-08-19T18:01:19;10.10;;;5.63;;
51792;SDS011;37850;53.178;6.376;2022-08-19T18:03:45;7.32;;;4.50;;
51792;SDS011;37850;53.178;6.376;2022-08-19T18:06:12;7.70;;;4.25;;
51792;SDS011;37850;53.178;6.376;2022-08-19T18:08:39;8.57;;;3.80;;
51792;SDS011;37850;53.178;6.376;2022-08-19T18:11:06;7.78;;;3.58;;
51792;SDS011;37850;53.178;6.376;2022-08-19T18:13:33;5.30;;;2.97;;
51792;SDS011;37850;53.178;6.376;2022-08-19T18:15:59;7.65;;;3.13;;
51792;SDS011;37850;53.178;6.376;2022-08-19T18:18:28;6.45;;;3.17;;
51792;SDS011;37850;53.178;6.376;2022-08-19T18:20:54;6.55;;;2.60;;
51792;SDS011;37850;53.178;6.376;2022-08-19T18:23:20;6.28;;;3.10;;
51792;SDS011;37850;53.178;6.376;2022-08-19T18:25:47;6.65;;;2.50;;
51792;SDS011;37850;53.178;6.376;2022-08-19T18:28:13;9.43;;;2.78;;
51792;SDS011;37850;53.178;6.376;2022-08-19T18:30:39;6.30;;;2.70;;
51792;SDS011;37850;53.178;6.376;2022-08-19T18:33:06;8.02;;;2.67;;
51792;SDS011;37850;53.178;6.376;2022-08-19T18:35:43;4.28;;;2.00;;
51792;SDS011;37850;53.178;6.376;2022-08-19T18:38:11;6.57;;;2.90;;
51792;SDS011;37850;53.178;6.376;2022-08-19T18:40:57;7.32;;;2.40;;
51792;SDS011;37850;53.178;6.376;2022-08-19T18:43:42;6.90;;;2.90;;
51792;SDS011;37850;53.178;6.376;2022-08-19T18:46:27;8.43;;;2.65;;
51792;SDS011;37850;53.178;6.376;2022-08-19T18:49:23;7.43;;;2.80;;
51792;SDS011;37850;53.178;6.376;2022-08-19T18:51:51;5.78;;;2.72;;
51792;SDS011;37850;53.178;6.376;2022-08-19T18:54:17;7.72;;;2.70;;
51792;SDS011;37850;53.178;6.376;2022-08-19T18:56:44;6.07;;;2.53;;
51792;SDS011;37850;53.178;6.376;2022-08-19T18:59:11;5.55;;;2.78;;
51792;SDS011;37850;53.178;6.376;2022-08-19T19:01:39;5.75;;;2.83;;
51792;SDS011;37850;53.178;6.376;2022-08-19T19:04:14;6.35;;;2.70;;
51792;SDS011;37850;53.178;6.376;2022-08-19T19:06:42;5.22;;;2.85;;
51792;SDS011;37850;53.178;6.376;2022-08-19T19:09:26;8.27;;;2.78;;
51792;SDS011;37850;53.178;6.376;2022-08-19T19:11:54;8.25;;;3.72;;
51792;SDS011;37850;53.178;6.376;2022-08-19T19:14:32;5.70;;;3.38;;
51792;SDS011;37850;53.178;6.376;2022-08-19T19:17:00;6.38;;;3.35;;
51792;SDS011;37850;53.178;6.376;2022-08-19T19:19:29;5.25;;;3.15;;
51792;SDS011;37850;53.178;6.376;2022-08-19T19:21:57;7.00;;;3.20;;
51792;SDS011;37850;53.178;6.376;2022-08-19T19:24:24;8.23;;;3.58;;
51792;SDS011;37850;53.178;6.376;2022-08-19T19:26:57;7.50;;;3.92;;
51792;SDS011;37850;53.178;6.376;2022-08-19T19:29:26;7.25;;;3.67;;
51792;SDS011;37850;53.178;6.376;2022-08-19T19:31:52;7.00;;;3.40;;
51792;SDS011;37850;53.178;6.376;2022-08-19T19:34:20;7.63;;;3.85;;
51792;SDS011;37850;53.178;6.376;2022-08-19T19:36:47;6.15;;;3.50;;
51792;SDS011;37850;53.178;6.376;2022-08-19T19:39:17;6.85;;;3.80;;
51792;SDS011;37850;53.178;6.376;2022-08-19T19:41:44;6.40;;;3.50;;
51792;SDS011;37850;53.178;6.376;2022-08-19T19:44:10;7.30;;;3.70;;
51792;SDS011;37850;53.178;6.376;2022-08-19T19:46:36;8.05;;;3.60;;
51792;SDS011;37850;53.178;6.376;2022-08-19T19:49:03;8.20;;;4.20;;
51792;SDS011;37850;53.178;6.376;2022-08-19T19:51:30;6.47;;;3.97;;
51792;SDS011;37850;53.178;6.376;2022-08-19T19:53:57;7.20;;;3.58;;
51792;SDS011;37850;53.178;6.376;2022-08-19T19:56:23;6.47;;;3.72;;
51792;SDS011;37850;53.178;6.376;2022-08-19T19:58:49;10.35;;;3.90;;
51792;SDS011;37850;53.178;6.376;2022-08-19T20:01:18;7.20;;;4.00;;
51792;SDS011;37850;53.178;6.376;2022-08-19T20:03:45;7.45;;;4.20;;
51792;SDS011;37850;53.178;6.376;2022-08-19T20:06:12;9.00;;;4.50;;
51792;SDS011;37850;53.178;6.376;2022-08-19T20:08:39;9.52;;;4.70;;
51792;SDS011;37850;53.178;6.376;2022-08-19T20:11:45;7.18;;;4.53;;
51792;SDS011;37850;53.178;6.376;2022-08-19T20:14:15;6.93;;;4.15;;
51792;SDS011;37850;53.178;6.376;2022-08-19T20:16:50;10.23;;;4.25;;
51792;SDS011;37850;53.178;6.376;2022-08-19T20:19:18;7.32;;;4.70;;
51792;SDS011;37850;53.178;6.376;2022-08-19T20:21:46;6.80;;;4.53;;
51792;SDS011;37850;53.178;6.376;2022-08-19T20:24:14;12.30;;;5.50;;
51792;SDS011;37850;53.178;6.376;2022-08-19T20:26:44;9.60;;;6.03;;
51792;SDS011;37850;53.178;6.376;2022-08-19T20:29:11;12.00;;;5.93;;
51792;SDS011;37850;53.178;6.376;2022-08-19T20:31:40;9.50;;;6.38;;
51792;SDS011;37850;53.178;6.376;2022-08-19T20:34:07;9.73;;;6.47;;
51792;SDS011;37850;53.178;6.376;2022-08-19T20:36:33;8.85;;;6.30;;
51792;SDS011;37850;53.178;6.376;2022-08-19T20:39:01;10.57;;;5.88;;
51792;SDS011;37850;53.178;6.376;2022-08-19T20:41:30;10.18;;;6.60;;
51792;SDS011;37850;53.178;6.376;2022-08-19T20:43:59;8.68;;;6.00;;
51792;SDS011;37850;53.178;6.376;2022-08-19T20:46:26;9.70;;;6.43;;
51792;SDS011;37850;53.178;6.376;2022-08-19T20:48:54;8.48;;;5.93;;
51792;SDS011;37850;53.178;6.376;2022-08-19T20:51:23;11.23;;;6.00;;
51792;SDS011;37850;53.178;6.376;2022-08-19T20:53:50;9.48;;;5.38;;
51792;SDS011;37850;53.178;6.376;2022-08-19T20:56:15;9.32;;;5.40;;
51792;SDS011;37850;53.178;6.376;2022-08-19T20:58:41;8.00;;;4.85;;
51792;SDS011;37850;53.178;6.376;2022-08-19T21:01:07;8.30;;;4.78;;
51792;SDS011;37850;53.178;6.376;2022-08-19T21:03:36;11.80;;;5.55;;
51792;SDS011;37850;53.178;6.376;2022-08-19T21:06:07;7.13;;;4.70;;
51792;SDS011;37850;53.178;6.376;2022-08-19T21:08:34;8.32;;;5.07;;
51792;SDS011;37850;53.178;6.376;2022-08-19T21:11:01;7.13;;;4.30;;
51792;SDS011;37850;53.178;6.376;2022-08-19T21:13:28;7.63;;;4.22;;
51792;SDS011;37850;53.178;6.376;2022-08-19T21:15:54;6.80;;;4.00;;
51792;SDS011;37850;53.178;6.376;2022-08-19T21:18:20;8.20;;;4.20;;
51792;SDS011;37850;53.178;6.376;2022-08-19T21:20:48;7.28;;;4.07;;
51792;SDS011;37850;53.178;6.376;2022-08-19T21:23:24;6.25;;;3.58;;
51792;SDS011;37850;53.178;6.376;2022-08-19T21:25:52;8.98;;;3.35;;
51792;SDS011;37850;53.178;6.376;2022-08-19T21:28:19;6.03;;;3.33;;
51792;SDS011;37850;53.178;6.376;2022-08-19T21:30:48;8.73;;;3.65;;
51792;SDS011;37850;53.178;6.376;2022-08-19T21:33:14;7.20;;;3.90;;
51792;SDS011;37850;53.178;6.376;2022-08-19T21:35:40;10.43;;;4.05;;
51792;SDS011;37850;53.178;6.376;2022-08-19T21:38:06;6.88;;;3.67;;
51792;SDS011;37850;53.178;6.376;2022-08-19T21:40:32;8.38;;;4.40;;
51792;SDS011;37850;53.178;6.376;2022-08-19T21:42:58;7.00;;;4.05;;
51792;SDS011;37850;53.178;6.376;2022-08-19T21:45:26;7.60;;;3.80;;
51792;SDS011;37850;53.178;6.376;2022-08-19T21:47:52;7.78;;;4.20;;
51792;SDS011;37850;53.178;6.376;2022-08-19T21:50:18;7.85;;;3.88;;
51792;SDS011;37850;53.178;6.376;2022-08-19T21:52:44;7.68;;;4.15;;
51792;SDS011;37850;53.178;6.376;2022-08-19T21:55:11;7.88;;;4.22;;
51792;SDS011;37850;53.178;6.376;2022-08-19T21:57:36;7.75;;;4.68;;
51792;SDS011;37850;53.178;6.376;2022-08-19T22:00:07;7.95;;;4.63;;
51792;SDS011;37850;53.178;6.376;2022-08-19T22:02:38;7.20;;;4.07;;
51792;SDS011;37850;53.178;6.376;2022-08-19T22:05:04;7.20;;;4.40;;
51792;SDS011;37850;53.178;6.376;2022-08-19T22:07:30;7.18;;;4.30;;
51792;SDS011;37850;53.178;6.376;2022-08-19T22:09:56;7.53;;;4.22;;
51792;SDS011;37850;53.178;6.376;2022-08-19T22:12:29;8.30;;;4.18;;
51792;SDS011;37850;53.178;6.376;2022-08-19T22:15:01;8.07;;;3.97;;
51792;SDS011;37850;53.178;6.376;2022-08-19T22:17:28;6.80;;;4.05;;
51792;SDS011;37850;53.178;6.376;2022-08-19T22:19:56;7.95;;;4.32;;
51792;SDS011;37850;53.178;6.376;2022-08-19T22:22:23;8.63;;;4.65;;
51792;SDS011;37850;53.178;6.376;2022-08-19T22:24:57;7.82;;;4.35;;
51792;SDS011;37850;53.178;6.376;2022-08-19T22:27:33;7.80;;;4.20;;
51792;SDS011;37850;53.178;6.376;2022-08-19T22:29:59;8.02;;;4.15;;
51792;SDS011;37850;53.178;6.376;2022-08-19T22:32:26;9.40;;;3.97;;
51792;SDS011;37850;53.178;6.376;2022-08-19T22:34:52;8.10;;;4.10;;
51792;SDS011;37850;53.178;6.376;2022-08-19T22:37:20;8.82;;;4.70;;
51792;SDS011;37850;53.178;6.376;2022-08-19T22:39:46;6.85;;;4.10;;
51792;SDS011;37850;53.178;6.376;2022-08-19T22:42:12;7.10;;;4.35;;
51792;SDS011;37850;53.178;6.376;2022-08-19T22:44:42;11.07;;;5.15;;
51792;SDS011;37850;53.178;6.376;2022-08-19T22:47:08;7.55;;;4.78;;
51792;SDS011;37850;53.178;6.376;2022-08-19T22:49:34;10.45;;;5.32;;
51792;SDS011;37850;53.178;6.376;2022-08-19T22:51:59;8.75;;;4.93;;
51792;SDS011;37850;53.178;6.376;2022-08-19T22:54:45;8.55;;;4.60;;
51792;SDS011;37850;53.178;6.376;2022-08-19T22:57:12;8.60;;;5.07;;
51792;SDS011;37850;53.178;6.376;2022-08-19T22:59:39;10.38;;;4.72;;
51792;SDS011;37850;53.178;6.376;2022-08-19T23:02:04;8.52;;;4.40;;
51792;SDS011;37850;53.178;6.376;2022-08-19T23:04:30;8.23;;;4.63;;
51792;SDS011;37850;53.178;6.376;2022-08-19T23:06:56;10.27;;;4.93;;
51792;SDS011;37850;53.178;6.376;2022-08-19T23:09:22;9.13;;;4.00;;
51792;SDS011;37850;53.178;6.376;2022-08-19T23:11:47;10.38;;;4.53;;
51792;SDS011;37850;53.178;6.376;2022-08-19T23:14:14;12.00;;;4.30;;
51792;SDS011;37850;53.178;6.376;2022-08-19T23:16:40;11.90;;;4.40;;
51792;SDS011;37850;53.178;6.376;2022-08-19T23:19:06;13.68;;;4.60;;
51792;SDS011;37850;53.178;6.376;2022-08-19T23:21:32;9.88;;;3.88;;
51792;SDS011;37850;53.178;6.376;2022-08-19T23:24:00;8.15;;;3.90;;
51792;SDS011;37850;53.178;6.376;2022-08-19T23:26:26;9.15;;;4.20;;
51792;SDS011;37850;53.178;6.376;2022-08-19T23:28:51;13.88;;;4.30;;
51792;SDS011;37850;53.178;6.376;2022-08-19T23:31:36;9.07;;;3.33;;
51792;SDS011;37850;53.178;6.376;2022-08-19T23:34:01;12.93;;;3.67;;
51792;SDS011;37850;53.178;6.376;2022-08-19T23:36:27;13.05;;;3.50;;
51792;SDS011;37850;53.178;6.376;2022-08-19T23:38:53;9.63;;;3.38;;
51792;SDS011;37850;53.178;6.376;2022-08-19T23:41:20;12.43;;;3.50;;
51792;SDS011;37850;53.178;6.376;2022-08-19T23:43:47;9.32;;;3.25;;
51792;SDS011;37850;53.178;6.376;2022-08-19T23:46:14;10.30;;;3.67;;
51792;SDS011;37850;53.178;6.376;2022-08-19T23:48:43;10.07;;;3.15;;
51792;SDS011;37850;53.178;6.376;2022-08-19T23:51:12;9.38;;;3.42;;
51792;SDS011;37850;53.178;6.376;2022-08-19T23:53:40;10.85;;;3.55;;
51792;SDS011;37850;53.178;6.376;2022-08-19T23:56:08;9.05;;;3.20;;
51792;SDS011;37850;53.178;6.376;2022-08-19T23:58:35;13.25;;;3.38;;
